createdAt,value
2022-10-07T00:00:13.669Z,77.42
2022-10-07T00:01:13.763Z,77.28
2022-10-07T00:02:13.718Z,77.28
2022-10-07T00:03:13.683Z,77.09
2022-10-07T00:04:13.689Z,77.38
2022-10-07T00:05:13.695Z,77.38
2022-10-07T00:06:13.700Z,77.47
2022-10-07T00:07:13.711Z,77.38
2022-10-07T00:08:13.721Z,77.95
2022-10-07T00:09:13.727Z,77.95
2022-10-07T00:10:13.727Z,78.14
2022-10-07T00:11:13.732Z,78.23
2022-10-07T00:12:13.768Z,78.05
2022-10-07T00:13:13.753Z,78.14
2022-10-07T00:14:13.759Z,77.95
2022-10-07T00:15:13.759Z,77.86
2022-10-07T00:16:13.870Z,77.95
2022-10-07T00:17:13.778Z,77.86
2022-10-07T00:18:13.786Z,78.14
2022-10-07T00:19:13.784Z,78.33
2022-10-07T00:20:13.798Z,78.14
2022-10-07T00:21:13.803Z,78.14
2022-10-07T00:22:13.808Z,78.43
2022-10-07T00:23:13.807Z,78.14
2022-10-07T00:24:13.814Z,78.05
2022-10-07T00:25:13.821Z,78.23
2022-10-07T00:26:13.834Z,78.14
2022-10-07T00:27:13.834Z,78.33
2022-10-07T00:28:13.922Z,77.76
2022-10-07T00:29:13.844Z,78.14
2022-10-07T00:30:13.859Z,77.67
2022-10-07T00:31:13.891Z,77.28
2022-10-07T00:32:13.871Z,77.38
2022-10-07T00:33:13.871Z,77.38
2022-10-07T00:34:13.883Z,77.47
2022-10-07T00:35:13.888Z,77.47
2022-10-07T00:36:14.715Z,77.38
2022-10-07T00:37:13.893Z,77.57
2022-10-07T00:38:13.904Z,77.38
2022-10-07T00:39:13.912Z,77.38
2022-10-07T00:40:13.927Z,77.38
2022-10-07T00:41:13.914Z,77.47
2022-10-07T00:42:13.930Z,77.28
2022-10-07T00:43:13.927Z,77.57
2022-10-07T00:44:13.957Z,77.19
2022-10-07T00:45:13.944Z,77.38
2022-10-07T00:46:14.010Z,77.19
2022-10-07T00:47:13.955Z,77.47
2022-10-07T00:48:13.959Z,77.86
2022-10-07T00:49:13.973Z,77.76
2022-10-07T00:50:13.978Z,78.23
2022-10-07T00:51:13.987Z,77.95
2022-10-07T00:52:13.990Z,77.95
2022-10-07T00:53:13.991Z,77.86
2022-10-07T00:54:14.002Z,77.95
2022-10-07T00:55:14.003Z,78.05
2022-10-07T00:56:14.007Z,77.95
2022-10-07T00:57:14.016Z,77.86
2022-10-07T00:58:14.020Z,77.38
2022-10-07T00:59:14.028Z,77.44
2022-10-07T01:00:14.062Z,77.15
2022-10-07T01:01:14.122Z,77.25
2022-10-07T01:02:14.106Z,77.15
2022-10-07T01:03:14.051Z,78.10
2022-10-07T01:04:14.056Z,78.20
2022-10-07T01:05:14.061Z,77.62
2022-10-07T01:06:14.075Z,78.01
2022-10-07T01:07:14.082Z,78.01
2022-10-07T01:08:14.086Z,78.49
2022-10-07T01:09:14.083Z,78.30
2022-10-07T01:10:14.091Z,78.58
2022-10-07T01:11:14.300Z,78.49
2022-10-07T01:12:14.106Z,78.77
2022-10-07T01:13:14.115Z,78.96
2022-10-07T01:14:14.123Z,78.96
2022-10-07T01:15:14.119Z,78.67
2022-10-07T01:16:14.155Z,78.58
2022-10-07T01:17:14.138Z,79.25
2022-10-07T01:18:14.146Z,78.49
2022-10-07T01:19:14.143Z,78.86
2022-10-07T01:20:14.151Z,78.86
2022-10-07T01:21:14.165Z,78.77
2022-10-07T01:22:14.161Z,78.86
2022-10-07T01:23:14.177Z,78.77
2022-10-07T01:24:14.181Z,78.49
2022-10-07T01:25:14.189Z,78.58
2022-10-07T01:26:14.193Z,78.39
2022-10-07T01:27:14.193Z,78.58
2022-10-07T01:28:14.305Z,78.86
2022-10-07T01:29:14.211Z,79.06
2022-10-07T01:30:14.210Z,79.06
2022-10-07T01:31:14.258Z,79.25
2022-10-07T01:32:14.250Z,79.35
2022-10-07T01:33:14.229Z,79.25
2022-10-07T01:34:14.242Z,79.44
2022-10-07T01:35:14.248Z,79.06
2022-10-07T01:36:14.244Z,79.15
2022-10-07T01:37:14.252Z,79.06
2022-10-07T01:38:14.265Z,79.15
2022-10-07T01:39:14.261Z,79.25
2022-10-07T01:40:14.275Z,79.06
2022-10-07T01:41:14.281Z,79.25
2022-10-07T01:42:14.287Z,79.63
2022-10-07T01:43:14.287Z,79.25
2022-10-07T01:44:14.298Z,79.35
2022-10-07T01:45:14.306Z,79.44
2022-10-07T01:46:14.403Z,79.63
2022-10-07T01:47:14.309Z,79.25
2022-10-07T01:48:14.348Z,79.06
2022-10-07T01:49:14.320Z,79.25
2022-10-07T01:50:14.337Z,78.86
2022-10-07T01:51:14.332Z,78.96
2022-10-07T01:52:14.345Z,79.15
2022-10-07T01:53:14.344Z,78.58
2022-10-07T01:54:14.363Z,78.30
2022-10-07T01:55:14.355Z,78.58
2022-10-07T01:56:14.361Z,78.58
2022-10-07T01:57:14.376Z,78.58
2022-10-07T01:58:14.380Z,78.67
2022-10-07T01:59:14.387Z,79.06
2022-10-07T02:00:14.393Z,78.30
2022-10-07T02:01:14.437Z,78.77
2022-10-07T02:02:14.403Z,78.58
2022-10-07T02:03:14.459Z,78.77
2022-10-07T02:04:14.428Z,78.67
2022-10-07T02:05:14.415Z,78.58
2022-10-07T02:06:14.427Z,79.15
2022-10-07T02:07:14.428Z,78.49
2022-10-07T02:08:14.431Z,78.96
2022-10-07T02:09:14.445Z,79.63
2022-10-07T02:10:14.449Z,79.44
2022-10-07T02:11:14.458Z,79.44
2022-10-07T02:12:14.461Z,79.53
2022-10-07T02:13:14.460Z,79.44
2022-10-07T02:14:14.479Z,79.44
2022-10-07T02:15:14.479Z,79.53
2022-10-07T02:16:14.572Z,79.25
2022-10-07T02:17:14.489Z,79.72
2022-10-07T02:18:14.489Z,79.63
2022-10-07T02:19:14.493Z,79.82
2022-10-07T02:20:14.532Z,79.44
2022-10-07T02:21:14.512Z,79.15
2022-10-07T02:22:14.520Z,79.44
2022-10-07T02:23:14.524Z,79.44
2022-10-07T02:24:14.523Z,79.53
2022-10-07T02:25:14.528Z,79.63
2022-10-07T02:26:14.542Z,79.72
2022-10-07T02:27:14.548Z,79.63
2022-10-07T02:28:14.610Z,79.63
2022-10-07T02:29:14.550Z,79.72
2022-10-07T02:30:14.564Z,80.01
2022-10-07T02:31:14.635Z,79.82
2022-10-07T02:32:14.568Z,79.91
2022-10-07T02:33:14.576Z,79.91
2022-10-07T02:34:19.542Z,80.11
2022-10-07T02:35:14.592Z,80.07
2022-10-07T02:36:14.619Z,79.88
2022-10-07T02:37:14.597Z,79.97
2022-10-07T02:38:14.609Z,79.59
2022-10-07T02:39:14.615Z,79.78
2022-10-07T02:40:14.621Z,79.97
2022-10-07T02:41:14.618Z,79.36
2022-10-07T02:42:14.632Z,80.12
2022-10-07T02:43:14.630Z,80.02
2022-10-07T02:44:14.643Z,80.31
2022-10-07T02:45:14.649Z,80.31
2022-10-07T02:46:14.695Z,80.31
2022-10-07T02:47:14.651Z,80.31
2022-10-07T02:48:14.664Z,80.41
2022-10-07T02:49:14.664Z,80.41
2022-10-07T02:50:14.679Z,80.50
2022-10-07T02:51:20.003Z,80.60
2022-10-07T02:52:14.707Z,80.79
2022-10-07T02:53:14.693Z,80.79
2022-10-07T02:54:14.696Z,80.88
2022-10-07T02:55:14.704Z,80.88
2022-10-07T02:56:14.700Z,81.07
2022-10-07T02:57:14.716Z,80.88
2022-10-07T02:58:14.718Z,80.79
2022-10-07T02:59:14.717Z,80.98
2022-10-07T03:00:14.724Z,80.88
2022-10-07T03:01:14.819Z,80.60
2022-10-07T03:02:14.732Z,81.07
2022-10-07T03:03:14.831Z,81.46
2022-10-07T03:04:14.742Z,81.46
2022-10-07T03:05:14.747Z,81.55
2022-10-07T03:06:14.761Z,81.74
2022-10-07T03:07:14.766Z,81.74
2022-10-07T03:08:14.794Z,81.36
2022-10-07T03:09:14.776Z,80.88
2022-10-07T03:10:14.779Z,81.26
2022-10-07T03:11:14.788Z,80.88
2022-10-07T03:12:14.792Z,81.36
2022-10-07T03:13:14.789Z,80.50
2022-10-07T03:14:14.796Z,80.50
2022-10-07T03:15:14.802Z,80.69
2022-10-07T03:16:14.828Z,80.60
2022-10-07T03:17:14.818Z,80.88
2022-10-07T03:18:14.824Z,81.46
2022-10-07T03:19:14.821Z,81.07
2022-10-07T03:20:14.830Z,81.46
2022-10-07T03:21:14.839Z,81.84
2022-10-07T03:22:14.844Z,81.84
2022-10-07T03:23:14.852Z,81.36
2022-10-07T03:24:14.868Z,81.65
2022-10-07T03:25:14.861Z,81.74
2022-10-07T03:26:14.856Z,81.65
2022-10-07T03:27:14.872Z,81.74
2022-10-07T03:28:14.930Z,81.36
2022-10-07T03:29:14.882Z,81.46
2022-10-07T03:30:14.878Z,81.55
2022-10-07T03:31:14.918Z,81.26
2022-10-07T03:32:14.888Z,81.46
2022-10-07T03:33:14.902Z,81.26
2022-10-07T03:34:14.899Z,81.36
2022-10-07T03:35:14.907Z,81.26
2022-10-07T03:36:14.917Z,81.26
2022-10-07T03:37:14.915Z,81.46
2022-10-07T03:38:14.926Z,81.26
2022-10-07T03:39:14.935Z,81.46
2022-10-07T03:40:14.949Z,81.26
2022-10-07T03:41:14.942Z,81.36
2022-10-07T03:42:14.947Z,81.36
2022-10-07T03:43:14.947Z,81.46
2022-10-07T03:44:14.956Z,81.36
2022-10-07T03:45:14.965Z,81.65
2022-10-07T03:46:15.033Z,81.74
2022-10-07T03:47:14.967Z,81.84
2022-10-07T03:48:14.977Z,81.65
2022-10-07T03:49:14.985Z,81.46
2022-10-07T03:50:14.991Z,81.84
2022-10-07T03:51:14.988Z,81.65
2022-10-07T03:52:14.999Z,81.84
2022-10-07T03:53:14.999Z,81.93
2022-10-07T03:54:15.004Z,81.74
2022-10-07T03:55:15.020Z,81.65
2022-10-07T03:56:15.043Z,81.65
2022-10-07T03:57:15.017Z,81.93
2022-10-07T03:58:15.023Z,81.65
2022-10-07T03:59:15.039Z,81.93
2022-10-07T04:00:15.040Z,81.93
2022-10-07T04:01:15.099Z,81.84
2022-10-07T04:02:15.045Z,81.84
2022-10-07T04:03:15.155Z,82.03
2022-10-07T04:04:15.060Z,81.65
2022-10-07T04:05:15.058Z,81.93
2022-10-07T04:06:15.072Z,81.84
2022-10-07T04:07:15.068Z,81.84
2022-10-07T04:08:15.081Z,82.12
2022-10-07T04:09:15.084Z,81.93
2022-10-07T04:10:15.085Z,81.84
2022-10-07T04:11:15.095Z,81.84
2022-10-07T04:12:15.121Z,81.74
2022-10-07T04:13:15.097Z,81.74
2022-10-07T04:14:15.109Z,81.60
2022-10-07T04:15:15.110Z,81.41
2022-10-07T04:16:15.198Z,81.79
2022-10-07T04:17:15.125Z,81.98
2022-10-07T04:18:15.129Z,82.46
2022-10-07T04:19:15.137Z,82.18
2022-10-07T04:20:15.131Z,82.18
2022-10-07T04:21:15.138Z,82.65
2022-10-07T04:22:15.149Z,82.37
2022-10-07T04:23:15.155Z,81.98
2022-10-07T04:24:15.159Z,82.27
2022-10-07T04:25:15.157Z,82.46
2022-10-07T04:26:15.161Z,82.41
2022-10-07T04:27:33.878Z,82.41
2022-10-07T04:28:15.313Z,82.60
2022-10-07T04:29:15.186Z,82.41
2022-10-07T04:30:15.188Z,82.21
2022-10-07T04:31:15.230Z,82.41
2022-10-07T04:32:15.210Z,82.31
2022-10-07T04:33:15.203Z,82.41
2022-10-07T04:34:15.204Z,82.41
2022-10-07T04:35:15.213Z,82.60
2022-10-07T04:36:15.221Z,82.41
2022-10-07T04:37:15.222Z,82.21
2022-10-07T04:38:15.229Z,82.31
2022-10-07T04:39:15.228Z,82.18
2022-10-07T04:40:15.231Z,82.46
2022-10-07T04:41:15.236Z,82.27
2022-10-07T04:42:15.248Z,82.56
2022-10-07T04:43:15.245Z,82.46
2022-10-07T04:44:15.301Z,82.56
2022-10-07T04:45:15.262Z,82.65
2022-10-07T04:46:15.353Z,82.46
2022-10-07T04:47:15.341Z,82.65
2022-10-07T04:48:15.277Z,82.93
2022-10-07T04:49:15.286Z,83.03
2022-10-07T04:50:15.281Z,83.22
2022-10-07T04:51:15.295Z,83.03
2022-10-07T04:52:15.296Z,83.22
2022-10-07T04:53:15.304Z,83.03
2022-10-07T04:54:15.301Z,83.32
2022-10-07T04:55:15.314Z,83.22
2022-10-07T04:56:15.309Z,83.13
2022-10-07T04:57:15.325Z,83.03
2022-10-07T04:58:15.325Z,83.03
2022-10-07T04:59:15.333Z,83.51
2022-10-07T05:00:15.363Z,83.41
2022-10-07T05:01:15.444Z,83.03
2022-10-07T05:02:15.444Z,83.32
2022-10-07T05:03:15.345Z,83.32
2022-10-07T05:04:15.347Z,83.61
2022-10-07T05:05:15.361Z,83.41
2022-10-07T05:06:15.365Z,83.22
2022-10-07T05:07:15.370Z,83.41
2022-10-07T05:08:15.368Z,83.80
2022-10-07T05:09:15.381Z,83.89
2022-10-07T05:10:15.378Z,83.89
2022-10-07T05:11:15.383Z,83.22
2022-10-07T05:12:15.395Z,83.51
2022-10-07T05:13:15.397Z,83.32
2022-10-07T05:14:15.397Z,83.03
2022-10-07T05:15:15.402Z,83.13
2022-10-07T05:16:15.492Z,83.03
2022-10-07T05:17:15.409Z,83.13
2022-10-07T05:18:15.417Z,82.93
2022-10-07T05:19:15.428Z,83.03
2022-10-07T05:20:15.434Z,83.03
2022-10-07T05:21:15.436Z,83.13
2022-10-07T05:22:15.435Z,83.22
2022-10-07T05:23:15.442Z,83.03
2022-10-07T05:24:15.444Z,83.32
2022-10-07T05:25:15.451Z,83.03
2022-10-07T05:26:15.460Z,83.13
2022-10-07T05:27:15.469Z,83.22
2022-10-07T05:28:15.526Z,83.32
2022-10-07T05:29:15.474Z,83.13
2022-10-07T05:30:15.471Z,82.93
2022-10-07T05:31:15.531Z,82.84
2022-10-07T05:32:15.537Z,82.75
2022-10-07T05:33:15.494Z,82.56
2022-10-07T05:34:15.490Z,82.89
2022-10-07T05:35:15.506Z,82.65
2022-10-07T05:36:15.499Z,82.56
2022-10-07T05:37:15.514Z,82.56
2022-10-07T05:38:15.510Z,82.50
2022-10-07T05:39:15.523Z,82.50
2022-10-07T05:40:15.519Z,82.60
2022-10-07T05:41:15.532Z,82.50
2022-10-07T05:42:15.528Z,82.60
2022-10-07T05:43:15.542Z,82.37
2022-10-07T05:44:15.539Z,82.56
2022-10-07T05:45:15.553Z,82.37
2022-10-07T05:46:15.612Z,82.18
2022-10-07T05:47:15.554Z,82.12
2022-10-07T05:48:15.647Z,82.41
2022-10-07T05:49:15.572Z,82.60
2022-10-07T05:50:15.573Z,82.56
2022-10-07T05:51:15.583Z,82.41
2022-10-07T05:52:15.583Z,82.18
2022-10-07T05:53:15.590Z,82.18
2022-10-07T05:54:15.593Z,82.27
2022-10-07T05:55:15.595Z,82.46
2022-10-07T05:56:15.594Z,82.37
2022-10-07T05:57:15.607Z,82.18
2022-10-07T05:58:15.617Z,82.27
2022-10-07T05:59:15.617Z,82.65
2022-10-07T06:00:15.617Z,82.37
2022-10-07T06:01:15.627Z,82.37
2022-10-07T06:02:15.834Z,82.69
2022-10-07T06:03:15.748Z,82.69
2022-10-07T06:04:15.652Z,82.50
2022-10-07T06:05:15.648Z,82.69
2022-10-07T06:06:15.644Z,82.84
2022-10-07T06:07:20.228Z,82.56
2022-10-07T06:08:15.651Z,82.56
2022-10-07T06:09:15.666Z,82.84
2022-10-07T06:10:15.669Z,82.37
2022-10-07T06:11:15.676Z,82.75
2022-10-07T06:12:15.677Z,82.65
2022-10-07T06:13:15.680Z,82.08
2022-10-07T06:14:15.688Z,82.75
2022-10-07T06:15:15.686Z,82.37
2022-10-07T06:16:15.747Z,82.84
2022-10-07T06:17:15.702Z,82.89
2022-10-07T06:18:15.709Z,82.79
2022-10-07T06:19:15.706Z,82.41
2022-10-07T06:20:15.731Z,82.60
2022-10-07T06:21:15.714Z,82.41
2022-10-07T06:22:15.728Z,82.69
2022-10-07T06:23:15.725Z,82.65
2022-10-07T06:24:15.729Z,82.37
2022-10-07T06:25:15.736Z,82.37
2022-10-07T06:26:15.749Z,82.27
2022-10-07T06:27:15.749Z,82.65
2022-10-07T06:28:15.856Z,82.37
2022-10-07T06:29:15.751Z,82.56
2022-10-07T06:30:15.758Z,82.56
2022-10-07T06:31:15.868Z,82.46
2022-10-07T06:32:15.767Z,82.75
2022-10-07T06:33:15.781Z,83.32
2022-10-07T06:34:15.785Z,83.51
2022-10-07T06:35:15.791Z,83.22
2022-10-07T06:36:15.822Z,83.17
2022-10-07T06:37:15.791Z,82.89
2022-10-07T06:38:15.817Z,83.36
2022-10-07T06:39:15.802Z,82.89
2022-10-07T06:40:15.846Z,82.89
2022-10-07T06:41:15.825Z,82.89
2022-10-07T06:42:15.814Z,82.89
2022-10-07T06:43:15.843Z,82.60
2022-10-07T06:44:15.834Z,82.60
2022-10-07T06:45:15.857Z,82.69
2022-10-07T06:46:15.942Z,82.41
2022-10-07T06:47:15.840Z,82.31
2022-10-07T06:48:15.923Z,82.41
2022-10-07T06:49:15.861Z,82.60
2022-10-07T06:50:15.876Z,82.60
2022-10-07T06:51:15.923Z,82.60
2022-10-07T06:52:15.910Z,82.31
2022-10-07T06:53:15.874Z,82.21
2022-10-07T06:54:15.876Z,82.41
2022-10-07T06:55:15.887Z,82.41
2022-10-07T06:56:15.902Z,82.21
2022-10-07T06:57:43.760Z,82.41
2022-10-07T06:58:15.920Z,82.41
2022-10-07T06:59:15.914Z,82.31
2022-10-07T07:00:15.911Z,82.41
2022-10-07T07:01:16.019Z,82.26
2022-10-07T07:02:15.996Z,82.35
2022-10-07T07:03:15.932Z,82.26
2022-10-07T07:04:15.936Z,82.35
2022-10-07T07:05:15.956Z,82.26
2022-10-07T07:06:15.932Z,82.45
2022-10-07T07:07:15.946Z,82.35
2022-10-07T07:08:15.960Z,82.45
2022-10-07T07:09:15.972Z,81.88
2022-10-07T07:10:15.998Z,81.92
2022-10-07T07:11:15.967Z,81.63
2022-10-07T07:12:15.979Z,81.35
2022-10-07T07:13:15.970Z,81.63
2022-10-07T07:14:15.979Z,81.25
2022-10-07T07:15:15.985Z,81.10
2022-10-07T07:16:16.072Z,81.10
2022-10-07T07:17:15.995Z,80.72
2022-10-07T07:18:15.998Z,80.95
2022-10-07T07:19:16.006Z,80.95
2022-10-07T07:20:16.010Z,80.57
2022-10-07T07:21:16.017Z,80.13
2022-10-07T07:22:16.019Z,79.60
2022-10-07T07:23:16.019Z,79.29
2022-10-07T07:24:16.046Z,78.03
2022-10-07T07:25:19.863Z,76.32
2022-10-07T07:26:18.665Z,75.15
2022-10-07T07:27:16.047Z,73.35
2022-10-07T07:32:17.010Z,62.79
2022-10-07T07:33:17.013Z,61.27
2022-10-07T07:44:55.565Z,47.98
2022-10-07T07:45:55.633Z,47.30
2022-10-07T07:46:55.570Z,46.72
2022-10-07T07:47:55.580Z,46.45
2022-10-07T07:48:55.590Z,45.97
2022-10-07T07:49:55.797Z,44.89
2022-10-07T07:50:58.635Z,44.33
2022-10-07T07:51:55.622Z,43.36
2022-10-07T07:52:57.349Z,43.26
2022-10-07T07:53:55.644Z,43.36
2022-10-07T16:13:20.239Z,49.46
2022-10-07T16:14:22.860Z,49.55
2022-10-07T16:15:20.249Z,50.32
2022-10-07T16:16:20.384Z,50.23
2022-10-07T16:17:20.261Z,49.94
2022-10-07T16:18:20.272Z,50.20
2022-10-07T16:19:20.293Z,50.32
2022-10-07T16:20:20.304Z,50.20
2022-10-07T16:21:20.316Z,50.49
2022-10-07T16:22:20.322Z,51.17
2022-10-07T16:23:20.339Z,51.17
2022-10-07T16:24:20.345Z,50.68
2022-10-07T16:25:20.355Z,51.64
2022-10-07T16:26:20.371Z,51.93
2022-10-07T16:27:20.380Z,51.45
2022-10-07T16:28:20.459Z,51.93
2022-10-07T16:29:20.431Z,52.32
2022-10-07T16:30:20.425Z,51.91
2022-10-07T16:31:20.460Z,51.91
2022-10-07T16:32:20.440Z,52.29
2022-10-07T16:33:20.454Z,52.48
2022-10-07T16:34:20.464Z,52.68
2022-10-07T16:35:20.475Z,52.87
2022-10-07T16:36:20.494Z,53.25
2022-10-07T16:37:20.507Z,53.06
2022-10-07T16:38:20.512Z,53.16
2022-10-07T16:39:20.529Z,53.35
2022-10-07T16:40:20.535Z,53.25
2022-10-07T16:41:23.782Z,53.45
2022-10-07T16:42:20.568Z,54.02
2022-10-07T16:44:50.772Z,54.41
2022-10-07T16:45:48.229Z,54.86
2022-10-07T16:46:48.340Z,54.57
2022-10-07T16:47:48.562Z,55.15
2022-10-07T16:48:48.256Z,54.96
2022-10-07T16:49:48.271Z,55.53
2022-10-07T16:50:48.285Z,55.44
2022-10-07T16:51:48.297Z,55.53
2022-10-07T16:52:48.311Z,55.53
2022-10-07T16:53:48.320Z,55.91
2022-10-07T16:54:48.334Z,56.30
2022-10-07T16:55:48.344Z,56.30
2022-10-07T16:56:48.446Z,56.40
2022-10-07T16:57:48.717Z,56.68
2022-10-07T16:58:48.379Z,56.88
2022-10-07T16:59:48.382Z,56.95
2022-10-07T17:00:48.429Z,56.78
2022-10-07T17:01:48.515Z,57.04
2022-10-07T17:02:48.417Z,56.85
2022-10-07T17:03:48.540Z,57.43
2022-10-07T17:04:48.446Z,57.52
2022-10-07T17:05:48.448Z,57.43
2022-10-07T17:06:48.465Z,58.00
2022-10-07T17:07:48.810Z,57.62
2022-10-07T17:08:48.612Z,58.29
2022-10-07T17:09:48.495Z,58.20
2022-10-07T17:10:48.511Z,58.29
2022-10-07T17:11:48.525Z,58.20
2022-10-07T17:12:48.534Z,58.55
2022-10-07T17:13:48.544Z,58.29
2022-10-07T17:14:48.549Z,58.45
2022-10-07T17:15:52.517Z,58.20
2022-10-07T17:16:48.594Z,58.64
2022-10-07T17:17:48.983Z,58.64
2022-10-07T17:18:48.600Z,59.03
2022-10-07T17:19:48.603Z,59.03
2022-10-07T17:20:48.620Z,59.12
2022-10-07T17:21:48.632Z,59.22
2022-10-07T17:22:48.643Z,59.32
2022-10-07T17:23:48.655Z,59.41
2022-10-07T17:37:34.616Z,60.53
2022-10-07T17:50:25.228Z,60.15
2022-10-07T17:51:25.239Z,60.53
2022-10-07T17:52:27.473Z,60.44
2022-10-07T17:53:25.280Z,60.53
2022-10-07T17:54:25.260Z,60.92
2022-10-07T17:55:25.282Z,60.82
2022-10-07T17:56:25.285Z,60.63
2022-10-07T17:57:25.293Z,60.35
2022-10-07T17:58:25.310Z,60.25
2022-10-07T17:59:25.318Z,60.44
2022-10-07T18:00:25.324Z,60.63
2022-10-07T18:01:25.358Z,61.11
2022-10-07T18:02:25.344Z,61.02
2022-10-07T18:03:25.361Z,61.46
2022-10-07T18:04:25.513Z,61.21
2022-10-07T18:05:25.371Z,61.66
2022-10-07T18:06:25.382Z,61.66
2022-10-07T18:07:25.402Z,61.66
2022-10-07T18:08:25.404Z,61.66
2022-10-07T18:09:25.464Z,61.94
2022-10-07T18:10:25.423Z,61.56
2022-10-07T18:11:25.434Z,61.85
2022-10-07T18:12:25.445Z,61.75
2022-10-07T18:13:25.452Z,61.66
2022-10-07T18:14:25.471Z,61.66
2022-10-07T18:15:25.482Z,61.94
2022-10-07T18:16:25.516Z,61.94
2022-10-07T18:17:25.499Z,62.04
2022-10-07T18:18:25.502Z,62.23
2022-10-07T18:19:25.521Z,62.23
2022-10-07T18:20:25.534Z,62.62
2022-10-07T18:21:25.541Z,62.23
2022-10-07T18:22:25.550Z,62.52
2022-10-07T18:23:25.575Z,62.42
2022-10-07T18:24:25.569Z,62.52
2022-10-07T18:25:25.592Z,63.00
2022-10-07T18:26:25.589Z,62.90
2022-10-07T18:27:25.600Z,62.90
2022-10-07T18:28:25.782Z,63.00
2022-10-07T18:29:25.611Z,63.48
2022-10-07T18:30:25.629Z,63.09
2022-10-07T18:31:25.696Z,63.38
2022-10-07T18:32:25.649Z,63.48
2022-10-07T18:33:25.651Z,63.38
2022-10-07T18:34:25.666Z,63.48
2022-10-07T18:35:25.681Z,63.38
2022-10-07T18:36:25.683Z,63.35
2022-10-07T18:37:25.693Z,63.35
2022-10-07T18:38:25.699Z,63.09
2022-10-07T18:39:25.717Z,63.64
2022-10-07T18:40:25.721Z,63.92
2022-10-07T18:41:25.828Z,63.92
2022-10-07T18:42:25.739Z,64.50
2022-10-07T18:43:25.753Z,64.02
2022-10-07T18:44:25.777Z,64.02
2022-10-07T18:49:34.947Z,64.40
2022-10-07T18:50:34.951Z,64.50
2022-10-07T18:58:36.848Z,63.26
2022-10-07T18:59:36.839Z,63.32
2022-10-07T19:00:38.120Z,63.42
2022-10-07T19:01:37.032Z,63.22
2022-10-07T19:04:29.441Z,63.03
2022-10-07T19:18:25.798Z,63.22
